sensor_id;sensor_type;location;lat;lon;timestamp;P1;durP1;ratioP1;P2;durP2;ratioP2
7027;SDS011;3555;53.248;10.336;2023-04-15T00:01:01;9.67;;;6.60;;
7027;SDS011;3555;53.248;10.336;2023-04-15T00:03:27;8.83;;;6.23;;
7027;SDS011;3555;53.248;10.336;2023-04-15T00:05:54;7.10;;;6.10;;
7027;SDS011;3555;53.248;10.336;2023-04-15T00:08:23;8.97;;;6.77;;
7027;SDS011;3555;53.248;10.336;2023-04-15T00:10:50;7.60;;;6.63;;
7027;SDS011;3555;53.248;10.336;2023-04-15T00:13:17;6.90;;;5.37;;
7027;SDS011;3555;53.248;10.336;2023-04-15T00:15:46;6.70;;;5.80;;
7027;SDS011;3555;53.248;10.336;2023-04-15T00:18:13;7.00;;;5.47;;
7027;SDS011;3555;53.248;10.336;2023-04-15T00:20:39;5.77;;;5.10;;
7027;SDS011;3555;53.248;10.336;2023-04-15T00:23:06;6.97;;;4.87;;
7027;SDS011;3555;53.248;10.336;2023-04-15T00:25:33;6.50;;;5.27;;
7027;SDS011;3555;53.248;10.336;2023-04-15T00:28:00;6.00;;;4.70;;
7027;SDS011;3555;53.248;10.336;2023-04-15T00:30:28;6.47;;;4.97;;
7027;SDS011;3555;53.248;10.336;2023-04-15T00:32:56;5.43;;;4.67;;
7027;SDS011;3555;53.248;10.336;2023-04-15T00:35:23;6.73;;;5.33;;
7027;SDS011;3555;53.248;10.336;2023-04-15T00:37:50;6.50;;;5.40;;
7027;SDS011;3555;53.248;10.336;2023-04-15T00:40:18;5.97;;;5.20;;
7027;SDS011;3555;53.248;10.336;2023-04-15T00:42:48;6.50;;;5.00;;
7027;SDS011;3555;53.248;10.336;2023-04-15T00:45:15;7.03;;;5.90;;
7027;SDS011;3555;53.248;10.336;2023-04-15T00:47:43;7.40;;;4.80;;
7027;SDS011;3555;53.248;10.336;2023-04-15T00:50:11;6.60;;;4.63;;
7027;SDS011;3555;53.248;10.336;2023-04-15T00:52:38;5.97;;;4.80;;
7027;SDS011;3555;53.248;10.336;2023-04-15T00:55:06;5.60;;;4.70;;
7027;SDS011;3555;53.248;10.336;2023-04-15T00:57:34;5.00;;;4.50;;
7027;SDS011;3555;53.248;10.336;2023-04-15T01:00:02;6.10;;;4.77;;
7027;SDS011;3555;53.248;10.336;2023-04-15T01:02:33;5.87;;;5.13;;
7027;SDS011;3555;53.248;10.336;2023-04-15T01:05:00;5.33;;;3.80;;
7027;SDS011;3555;53.248;10.336;2023-04-15T01:07:29;5.87;;;4.13;;
7027;SDS011;3555;53.248;10.336;2023-04-15T01:09:56;5.03;;;4.27;;
7027;SDS011;3555;53.248;10.336;2023-04-15T01:12:23;4.87;;;4.07;;
7027;SDS011;3555;53.248;10.336;2023-04-15T01:14:52;4.70;;;3.90;;
7027;SDS011;3555;53.248;10.336;2023-04-15T01:17:19;5.90;;;4.23;;
7027;SDS011;3555;53.248;10.336;2023-04-15T01:19:46;5.20;;;4.17;;
7027;SDS011;3555;53.248;10.336;2023-04-15T01:22:13;5.87;;;4.67;;
7027;SDS011;3555;53.248;10.336;2023-04-15T01:24:42;5.43;;;4.33;;
7027;SDS011;3555;53.248;10.336;2023-04-15T01:27:17;4.77;;;4.20;;
7027;SDS011;3555;53.248;10.336;2023-04-15T01:29:45;5.03;;;4.30;;
7027;SDS011;3555;53.248;10.336;2023-04-15T01:32:12;5.00;;;4.00;;
7027;SDS011;3555;53.248;10.336;2023-04-15T01:34:39;5.40;;;4.47;;
7027;SDS011;3555;53.248;10.336;2023-04-15T01:37:06;6.10;;;4.30;;
7027;SDS011;3555;53.248;10.336;2023-04-15T01:39:33;4.10;;;3.57;;
7027;SDS011;3555;53.248;10.336;2023-04-15T01:42:00;6.07;;;4.30;;
7027;SDS011;3555;53.248;10.336;2023-04-15T01:44:28;5.73;;;4.20;;
7027;SDS011;3555;53.248;10.336;2023-04-15T01:46:55;5.30;;;4.03;;
7027;SDS011;3555;53.248;10.336;2023-04-15T01:49:22;4.73;;;3.93;;
7027;SDS011;3555;53.248;10.336;2023-04-15T01:51:49;5.63;;;4.47;;
7027;SDS011;3555;53.248;10.336;2023-04-15T01:54:16;6.00;;;4.87;;
7027;SDS011;3555;53.248;10.336;2023-04-15T01:56:43;5.57;;;4.07;;
7027;SDS011;3555;53.248;10.336;2023-04-15T01:59:10;4.77;;;4.10;;
7027;SDS011;3555;53.248;10.336;2023-04-15T02:01:38;5.37;;;4.60;;
7027;SDS011;3555;53.248;10.336;2023-04-15T02:04:05;4.90;;;4.40;;
7027;SDS011;3555;53.248;10.336;2023-04-15T02:06:33;5.50;;;4.70;;
7027;SDS011;3555;53.248;10.336;2023-04-15T02:09:00;4.73;;;4.13;;
7027;SDS011;3555;53.248;10.336;2023-04-15T02:11:28;7.07;;;4.47;;
7027;SDS011;3555;53.248;10.336;2023-04-15T02:13:55;5.30;;;4.43;;
7027;SDS011;3555;53.248;10.336;2023-04-15T02:16:22;5.53;;;4.77;;
7027;SDS011;3555;53.248;10.336;2023-04-15T02:18:50;5.43;;;4.73;;
7027;SDS011;3555;53.248;10.336;2023-04-15T02:21:17;4.73;;;4.23;;
7027;SDS011;3555;53.248;10.336;2023-04-15T02:23:44;5.53;;;4.67;;
7027;SDS011;3555;53.248;10.336;2023-04-15T02:26:12;5.50;;;4.60;;
7027;SDS011;3555;53.248;10.336;2023-04-15T02:28:39;5.40;;;4.53;;
7027;SDS011;3555;53.248;10.336;2023-04-15T02:31:06;5.63;;;4.87;;
7027;SDS011;3555;53.248;10.336;2023-04-15T02:33:33;4.80;;;4.17;;
7027;SDS011;3555;53.248;10.336;2023-04-15T02:36:02;6.60;;;4.57;;
7027;SDS011;3555;53.248;10.336;2023-04-15T02:38:30;7.10;;;5.10;;
7027;SDS011;3555;53.248;10.336;2023-04-15T02:40:57;5.47;;;4.30;;
7027;SDS011;3555;53.248;10.336;2023-04-15T02:43:24;6.07;;;4.90;;
7027;SDS011;3555;53.248;10.336;2023-04-15T02:45:51;5.03;;;4.37;;
7027;SDS011;3555;53.248;10.336;2023-04-15T02:48:18;6.53;;;4.60;;
7027;SDS011;3555;53.248;10.336;2023-04-15T02:50:45;5.20;;;4.40;;
7027;SDS011;3555;53.248;10.336;2023-04-15T02:53:14;6.00;;;4.77;;
7027;SDS011;3555;53.248;10.336;2023-04-15T02:55:41;6.40;;;4.60;;
7027;SDS011;3555;53.248;10.336;2023-04-15T02:58:08;5.30;;;4.77;;
7027;SDS011;3555;53.248;10.336;2023-04-15T03:00:35;4.87;;;4.27;;
7027;SDS011;3555;53.248;10.336;2023-04-15T03:03:03;6.13;;;4.60;;
7027;SDS011;3555;53.248;10.336;2023-04-15T03:05:30;5.73;;;4.70;;
7027;SDS011;3555;53.248;10.336;2023-04-15T03:07:57;5.10;;;4.60;;
7027;SDS011;3555;53.248;10.336;2023-04-15T03:10:26;7.23;;;5.27;;
7027;SDS011;3555;53.248;10.336;2023-04-15T03:12:53;5.77;;;4.90;;
7027;SDS011;3555;53.248;10.336;2023-04-15T03:15:20;5.70;;;4.83;;
7027;SDS011;3555;53.248;10.336;2023-04-15T03:17:47;8.13;;;5.30;;
7027;SDS011;3555;53.248;10.336;2023-04-15T03:20:14;6.87;;;5.27;;
7027;SDS011;3555;53.248;10.336;2023-04-15T03:22:41;6.37;;;5.27;;
7027;SDS011;3555;53.248;10.336;2023-04-15T03:25:08;6.77;;;5.87;;
7027;SDS011;3555;53.248;10.336;2023-04-15T03:27:36;6.87;;;5.60;;
7027;SDS011;3555;53.248;10.336;2023-04-15T03:30:04;7.70;;;6.20;;
7027;SDS011;3555;53.248;10.336;2023-04-15T03:32:33;7.37;;;6.20;;
7027;SDS011;3555;53.248;10.336;2023-04-15T03:35:00;7.70;;;5.80;;
7027;SDS011;3555;53.248;10.336;2023-04-15T03:37:26;8.80;;;6.07;;
7027;SDS011;3555;53.248;10.336;2023-04-15T03:39:53;9.80;;;6.70;;
7027;SDS011;3555;53.248;10.336;2023-04-15T03:42:20;8.73;;;7.30;;
7027;SDS011;3555;53.248;10.336;2023-04-15T03:44:48;9.37;;;6.77;;
7027;SDS011;3555;53.248;10.336;2023-04-15T03:47:15;8.40;;;6.50;;
7027;SDS011;3555;53.248;10.336;2023-04-15T03:49:42;8.17;;;6.00;;
7027;SDS011;3555;53.248;10.336;2023-04-15T03:52:09;9.03;;;7.30;;
7027;SDS011;3555;53.248;10.336;2023-04-15T03:54:36;8.10;;;6.60;;
7027;SDS011;3555;53.248;10.336;2023-04-15T03:57:03;10.33;;;7.70;;
7027;SDS011;3555;53.248;10.336;2023-04-15T03:59:30;8.83;;;6.93;;
7027;SDS011;3555;53.248;10.336;2023-04-15T04:01:58;10.63;;;7.93;;
7027;SDS011;3555;53.248;10.336;2023-04-15T04:04:25;9.60;;;7.13;;
7027;SDS011;3555;53.248;10.336;2023-04-15T04:06:52;9.20;;;7.20;;
7027;SDS011;3555;53.248;10.336;2023-04-15T04:09:19;9.90;;;7.23;;
7027;SDS011;3555;53.248;10.336;2023-04-15T04:11:46;10.23;;;7.87;;
7027;SDS011;3555;53.248;10.336;2023-04-15T04:14:13;10.90;;;8.33;;
7027;SDS011;3555;53.248;10.336;2023-04-15T04:16:40;11.07;;;7.97;;
7027;SDS011;3555;53.248;10.336;2023-04-15T04:19:08;12.90;;;8.67;;
7027;SDS011;3555;53.248;10.336;2023-04-15T04:21:35;11.53;;;7.90;;
7027;SDS011;3555;53.248;10.336;2023-04-15T04:24:03;12.37;;;8.57;;
7027;SDS011;3555;53.248;10.336;2023-04-15T04:26:30;12.07;;;8.47;;
7027;SDS011;3555;53.248;10.336;2023-04-15T04:28:57;13.43;;;9.00;;
7027;SDS011;3555;53.248;10.336;2023-04-15T04:31:24;12.50;;;9.00;;
7027;SDS011;3555;53.248;10.336;2023-04-15T04:33:51;12.63;;;8.37;;
7027;SDS011;3555;53.248;10.336;2023-04-15T04:36:19;12.73;;;8.57;;
7027;SDS011;3555;53.248;10.336;2023-04-15T04:38:46;14.00;;;9.73;;
7027;SDS011;3555;53.248;10.336;2023-04-15T04:41:13;12.80;;;9.37;;
7027;SDS011;3555;53.248;10.336;2023-04-15T04:43:40;12.47;;;8.33;;
7027;SDS011;3555;53.248;10.336;2023-04-15T04:46:07;16.43;;;9.50;;
7027;SDS011;3555;53.248;10.336;2023-04-15T04:48:34;12.40;;;9.10;;
7027;SDS011;3555;53.248;10.336;2023-04-15T04:51:01;12.53;;;8.63;;
7027;SDS011;3555;53.248;10.336;2023-04-15T04:53:29;12.40;;;9.03;;
7027;SDS011;3555;53.248;10.336;2023-04-15T04:55:56;12.23;;;8.80;;
7027;SDS011;3555;53.248;10.336;2023-04-15T04:58:24;12.23;;;8.63;;
7027;SDS011;3555;53.248;10.336;2023-04-15T05:00:51;11.43;;;8.10;;
7027;SDS011;3555;53.248;10.336;2023-04-15T05:03:18;12.83;;;8.77;;
7027;SDS011;3555;53.248;10.336;2023-04-15T05:05:45;12.37;;;8.83;;
7027;SDS011;3555;53.248;10.336;2023-04-15T05:08:13;12.73;;;8.60;;
7027;SDS011;3555;53.248;10.336;2023-04-15T05:10:41;11.93;;;8.77;;
7027;SDS011;3555;53.248;10.336;2023-04-15T05:13:08;12.63;;;9.53;;
7027;SDS011;3555;53.248;10.336;2023-04-15T05:15:35;13.37;;;8.87;;
7027;SDS011;3555;53.248;10.336;2023-04-15T05:18:05;14.43;;;9.87;;
7027;SDS011;3555;53.248;10.336;2023-04-15T05:20:32;12.03;;;8.27;;
7027;SDS011;3555;53.248;10.336;2023-04-15T05:22:59;14.10;;;9.50;;
7027;SDS011;3555;53.248;10.336;2023-04-15T05:25:26;13.47;;;9.53;;
7027;SDS011;3555;53.248;10.336;2023-04-15T05:27:54;16.87;;;10.17;;
7027;SDS011;3555;53.248;10.336;2023-04-15T05:30:21;15.57;;;10.33;;
7027;SDS011;3555;53.248;10.336;2023-04-15T05:32:48;13.77;;;9.33;;
7027;SDS011;3555;53.248;10.336;2023-04-15T05:35:15;14.50;;;9.53;;
7027;SDS011;3555;53.248;10.336;2023-04-15T05:37:43;16.37;;;10.77;;
7027;SDS011;3555;53.248;10.336;2023-04-15T05:40:10;15.77;;;10.83;;
7027;SDS011;3555;53.248;10.336;2023-04-15T05:42:37;15.53;;;10.47;;
7027;SDS011;3555;53.248;10.336;2023-04-15T05:45:06;16.77;;;10.90;;
7027;SDS011;3555;53.248;10.336;2023-04-15T05:47:33;18.80;;;11.50;;
7027;SDS011;3555;53.248;10.336;2023-04-15T05:50:01;16.00;;;10.47;;
7027;SDS011;3555;53.248;10.336;2023-04-15T05:52:28;17.67;;;11.63;;
7027;SDS011;3555;53.248;10.336;2023-04-15T05:54:56;18.80;;;11.83;;
7027;SDS011;3555;53.248;10.336;2023-04-15T05:57:23;21.30;;;12.27;;
7027;SDS011;3555;53.248;10.336;2023-04-15T05:59:49;20.80;;;12.73;;
7027;SDS011;3555;53.248;10.336;2023-04-15T06:02:18;21.50;;;12.87;;
7027;SDS011;3555;53.248;10.336;2023-04-15T06:04:45;21.20;;;13.03;;
7027;SDS011;3555;53.248;10.336;2023-04-15T06:07:12;20.27;;;13.60;;
7027;SDS011;3555;53.248;10.336;2023-04-15T06:09:39;24.10;;;15.07;;
7027;SDS011;3555;53.248;10.336;2023-04-15T06:12:06;23.83;;;14.90;;
7027;SDS011;3555;53.248;10.336;2023-04-15T06:14:36;26.83;;;16.50;;
7027;SDS011;3555;53.248;10.336;2023-04-15T06:17:03;26.83;;;16.13;;
7027;SDS011;3555;53.248;10.336;2023-04-15T06:19:31;26.40;;;16.23;;
7027;SDS011;3555;53.248;10.336;2023-04-15T06:21:58;29.23;;;17.93;;
7027;SDS011;3555;53.248;10.336;2023-04-15T06:24:25;30.50;;;18.07;;
7027;SDS011;3555;53.248;10.336;2023-04-15T06:26:52;30.33;;;17.67;;
7027;SDS011;3555;53.248;10.336;2023-04-15T06:29:20;29.83;;;17.63;;
7027;SDS011;3555;53.248;10.336;2023-04-15T06:31:46;34.97;;;20.37;;
7027;SDS011;3555;53.248;10.336;2023-04-15T06:34:13;32.73;;;18.40;;
7027;SDS011;3555;53.248;10.336;2023-04-15T06:36:42;34.10;;;19.10;;
7027;SDS011;3555;53.248;10.336;2023-04-15T06:39:08;31.43;;;19.23;;
7027;SDS011;3555;53.248;10.336;2023-04-15T06:41:35;32.20;;;18.47;;
7027;SDS011;3555;53.248;10.336;2023-04-15T06:44:02;33.93;;;19.80;;
7027;SDS011;3555;53.248;10.336;2023-04-15T06:46:29;33.30;;;18.80;;
7027;SDS011;3555;53.248;10.336;2023-04-15T06:48:56;30.17;;;19.57;;
7027;SDS011;3555;53.248;10.336;2023-04-15T06:51:23;33.50;;;20.40;;
7027;SDS011;3555;53.248;10.336;2023-04-15T06:53:52;30.10;;;18.23;;
7027;SDS011;3555;53.248;10.336;2023-04-15T06:56:19;33.77;;;19.73;;
7027;SDS011;3555;53.248;10.336;2023-04-15T06:58:47;32.53;;;20.20;;
7027;SDS011;3555;53.248;10.336;2023-04-15T07:01:14;32.37;;;20.37;;
7027;SDS011;3555;53.248;10.336;2023-04-15T07:03:41;35.30;;;20.83;;
7027;SDS011;3555;53.248;10.336;2023-04-15T07:06:08;29.03;;;20.10;;
7027;SDS011;3555;53.248;10.336;2023-04-15T07:08:35;31.57;;;20.47;;
7027;SDS011;3555;53.248;10.336;2023-04-15T07:11:03;29.97;;;19.60;;
7027;SDS011;3555;53.248;10.336;2023-04-15T07:13:30;33.23;;;20.97;;
7027;SDS011;3555;53.248;10.336;2023-04-15T07:15:58;33.37;;;21.40;;
7027;SDS011;3555;53.248;10.336;2023-04-15T07:18:25;30.03;;;20.13;;
7027;SDS011;3555;53.248;10.336;2023-04-15T07:20:52;31.73;;;21.27;;
7027;SDS011;3555;53.248;10.336;2023-04-15T07:23:22;31.73;;;20.70;;
7027;SDS011;3555;53.248;10.336;2023-04-15T07:25:49;34.50;;;21.27;;
7027;SDS011;3555;53.248;10.336;2023-04-15T07:28:18;28.97;;;20.00;;
7027;SDS011;3555;53.248;10.336;2023-04-15T07:30:45;35.47;;;21.77;;
7027;SDS011;3555;53.248;10.336;2023-04-15T07:33:12;30.67;;;20.80;;
7027;SDS011;3555;53.248;10.336;2023-04-15T07:35:39;33.87;;;21.93;;
7027;SDS011;3555;53.248;10.336;2023-04-15T07:38:06;28.37;;;19.23;;
7027;SDS011;3555;53.248;10.336;2023-04-15T07:40:33;34.07;;;21.97;;
7027;SDS011;3555;53.248;10.336;2023-04-15T07:43:00;29.60;;;19.63;;
7027;SDS011;3555;53.248;10.336;2023-04-15T07:45:28;32.97;;;20.83;;
7027;SDS011;3555;53.248;10.336;2023-04-15T07:47:56;30.93;;;20.10;;
7027;SDS011;3555;53.248;10.336;2023-04-15T07:50:23;29.03;;;19.67;;
7027;SDS011;3555;53.248;10.336;2023-04-15T07:52:50;32.00;;;20.93;;
7027;SDS011;3555;53.248;10.336;2023-04-15T07:55:17;32.70;;;23.03;;
7027;SDS011;3555;53.248;10.336;2023-04-15T07:57:47;31.20;;;20.60;;
7027;SDS011;3555;53.248;10.336;2023-04-15T08:00:14;32.97;;;20.30;;
7027;SDS011;3555;53.248;10.336;2023-04-15T08:02:43;32.43;;;21.53;;
7027;SDS011;3555;53.248;10.336;2023-04-15T08:05:12;35.00;;;20.60;;
7027;SDS011;3555;53.248;10.336;2023-04-15T08:07:39;34.43;;;22.00;;
7027;SDS011;3555;53.248;10.336;2023-04-15T08:10:07;36.40;;;23.70;;
7027;SDS011;3555;53.248;10.336;2023-04-15T08:12:34;37.03;;;24.03;;
7027;SDS011;3555;53.248;10.336;2023-04-15T08:15:02;35.73;;;23.17;;
7027;SDS011;3555;53.248;10.336;2023-04-15T08:17:29;37.30;;;23.90;;
7027;SDS011;3555;53.248;10.336;2023-04-15T08:19:58;35.20;;;23.33;;
7027;SDS011;3555;53.248;10.336;2023-04-15T08:22:25;35.83;;;23.90;;
7027;SDS011;3555;53.248;10.336;2023-04-15T08:24:52;35.43;;;23.10;;
7027;SDS011;3555;53.248;10.336;2023-04-15T08:27:19;35.83;;;23.50;;
7027;SDS011;3555;53.248;10.336;2023-04-15T08:29:46;34.73;;;22.50;;
7027;SDS011;3555;53.248;10.336;2023-04-15T08:32:13;31.53;;;22.10;;
7027;SDS011;3555;53.248;10.336;2023-04-15T08:34:40;36.00;;;23.60;;
7027;SDS011;3555;53.248;10.336;2023-04-15T08:37:09;34.10;;;22.73;;
7027;SDS011;3555;53.248;10.336;2023-04-15T08:39:36;38.80;;;23.40;;
7027;SDS011;3555;53.248;10.336;2023-04-15T08:42:03;37.13;;;23.10;;
7027;SDS011;3555;53.248;10.336;2023-04-15T08:44:36;36.03;;;24.57;;
7027;SDS011;3555;53.248;10.336;2023-04-15T08:47:06;32.93;;;21.67;;
7027;SDS011;3555;53.248;10.336;2023-04-15T08:49:33;37.90;;;23.60;;
7027;SDS011;3555;53.248;10.336;2023-04-15T08:52:04;39.83;;;23.87;;
7027;SDS011;3555;53.248;10.336;2023-04-15T08:54:33;37.53;;;23.47;;
7027;SDS011;3555;53.248;10.336;2023-04-15T08:57:01;37.03;;;23.90;;
7027;SDS011;3555;53.248;10.336;2023-04-15T08:59:29;39.03;;;24.37;;
7027;SDS011;3555;53.248;10.336;2023-04-15T09:01:56;34.33;;;22.67;;
7027;SDS011;3555;53.248;10.336;2023-04-15T09:04:23;35.33;;;21.87;;
7027;SDS011;3555;53.248;10.336;2023-04-15T09:06:50;33.13;;;23.17;;
7027;SDS011;3555;53.248;10.336;2023-04-15T09:09:17;36.77;;;23.30;;
7027;SDS011;3555;53.248;10.336;2023-04-15T09:11:45;35.20;;;23.37;;
7027;SDS011;3555;53.248;10.336;2023-04-15T09:14:14;32.30;;;21.57;;
7027;SDS011;3555;53.248;10.336;2023-04-15T09:16:57;36.03;;;22.07;;
7027;SDS011;3555;53.248;10.336;2023-04-15T09:19:24;34.53;;;22.07;;
7027;SDS011;3555;53.248;10.336;2023-04-15T09:21:52;37.50;;;22.00;;
7027;SDS011;3555;53.248;10.336;2023-04-15T09:24:20;33.67;;;21.33;;
7027;SDS011;3555;53.248;10.336;2023-04-15T09:26:50;36.33;;;21.87;;
7027;SDS011;3555;53.248;10.336;2023-04-15T09:29:18;37.53;;;23.73;;
7027;SDS011;3555;53.248;10.336;2023-04-15T09:31:45;34.70;;;23.10;;
7027;SDS011;3555;53.248;10.336;2023-04-15T09:34:12;33.47;;;22.03;;
7027;SDS011;3555;53.248;10.336;2023-04-15T09:36:50;34.23;;;21.53;;
7027;SDS011;3555;53.248;10.336;2023-04-15T09:39:18;37.73;;;22.57;;
7027;SDS011;3555;53.248;10.336;2023-04-15T09:41:45;33.73;;;21.67;;
7027;SDS011;3555;53.248;10.336;2023-04-15T09:44:22;33.73;;;21.73;;
7027;SDS011;3555;53.248;10.336;2023-04-15T09:46:50;34.70;;;22.30;;
7027;SDS011;3555;53.248;10.336;2023-04-15T09:49:17;41.73;;;24.33;;
7027;SDS011;3555;53.248;10.336;2023-04-15T09:51:44;35.73;;;21.80;;
7027;SDS011;3555;53.248;10.336;2023-04-15T09:54:14;34.47;;;22.43;;
7027;SDS011;3555;53.248;10.336;2023-04-15T09:56:45;34.27;;;21.90;;
7027;SDS011;3555;53.248;10.336;2023-04-15T09:59:12;33.43;;;22.20;;
7027;SDS011;3555;53.248;10.336;2023-04-15T10:01:41;32.53;;;21.10;;
7027;SDS011;3555;53.248;10.336;2023-04-15T10:04:08;28.83;;;20.97;;
7027;SDS011;3555;53.248;10.336;2023-04-15T10:06:35;36.50;;;20.47;;
7027;SDS011;3555;53.248;10.336;2023-04-15T10:09:02;33.80;;;20.73;;
7027;SDS011;3555;53.248;10.336;2023-04-15T10:11:31;31.90;;;21.03;;
7027;SDS011;3555;53.248;10.336;2023-04-15T10:14:00;37.93;;;22.30;;
7027;SDS011;3555;53.248;10.336;2023-04-15T10:16:28;33.33;;;21.20;;
7027;SDS011;3555;53.248;10.336;2023-04-15T10:19:00;32.03;;;20.60;;
7027;SDS011;3555;53.248;10.336;2023-04-15T10:21:29;32.53;;;20.63;;
7027;SDS011;3555;53.248;10.336;2023-04-15T10:23:56;32.83;;;21.33;;
7027;SDS011;3555;53.248;10.336;2023-04-15T10:26:24;31.00;;;19.43;;
7027;SDS011;3555;53.248;10.336;2023-04-15T10:28:51;35.27;;;21.63;;
7027;SDS011;3555;53.248;10.336;2023-04-15T10:31:18;30.30;;;20.57;;
7027;SDS011;3555;53.248;10.336;2023-04-15T10:33:46;30.37;;;21.43;;
7027;SDS011;3555;53.248;10.336;2023-04-15T10:36:16;30.50;;;20.50;;
7027;SDS011;3555;53.248;10.336;2023-04-15T10:38:44;30.50;;;19.87;;
7027;SDS011;3555;53.248;10.336;2023-04-15T10:41:13;30.27;;;19.60;;
7027;SDS011;3555;53.248;10.336;2023-04-15T10:43:44;28.77;;;18.20;;
7027;SDS011;3555;53.248;10.336;2023-04-15T10:46:23;28.57;;;17.93;;
7027;SDS011;3555;53.248;10.336;2023-04-15T10:49:05;26.37;;;19.07;;
7027;SDS011;3555;53.248;10.336;2023-04-15T10:51:36;29.73;;;18.77;;
7027;SDS011;3555;53.248;10.336;2023-04-15T10:54:07;27.53;;;18.00;;
7027;SDS011;3555;53.248;10.336;2023-04-15T10:56:40;28.37;;;18.70;;
7027;SDS011;3555;53.248;10.336;2023-04-15T10:59:07;27.70;;;19.17;;
7027;SDS011;3555;53.248;10.336;2023-04-15T11:01:50;25.33;;;17.50;;
7027;SDS011;3555;53.248;10.336;2023-04-15T11:13:26;24.05;;;16.85;;
7027;SDS011;3555;53.248;10.336;2023-04-15T11:15:59;22.23;;;16.23;;
7027;SDS011;3555;53.248;10.336;2023-04-15T11:18:27;20.88;;;15.10;;
7027;SDS011;3555;53.248;10.336;2023-04-15T11:21:00;22.40;;;16.23;;
7027;SDS011;3555;53.248;10.336;2023-04-15T11:23:29;19.58;;;14.13;;
7027;SDS011;3555;53.248;10.336;2023-04-15T11:26:03;21.55;;;15.07;;
7027;SDS011;3555;53.248;10.336;2023-04-15T11:28:33;19.52;;;16.02;;
7027;SDS011;3555;53.248;10.336;2023-04-15T11:31:04;20.95;;;15.18;;
7027;SDS011;3555;53.248;10.336;2023-04-15T11:33:32;19.48;;;15.10;;
7027;SDS011;3555;53.248;10.336;2023-04-15T11:35:59;18.88;;;14.77;;
7027;SDS011;3555;53.248;10.336;2023-04-15T11:38:27;21.00;;;15.10;;
7027;SDS011;3555;53.248;10.336;2023-04-15T11:40:55;20.02;;;14.48;;
7027;SDS011;3555;53.248;10.336;2023-04-15T11:43:23;20.92;;;15.25;;
7027;SDS011;3555;53.248;10.336;2023-04-15T11:45:51;22.85;;;15.77;;
7027;SDS011;3555;53.248;10.336;2023-04-15T11:48:20;20.55;;;15.23;;
7027;SDS011;3555;53.248;10.336;2023-04-15T11:50:51;18.95;;;14.75;;
7027;SDS011;3555;53.248;10.336;2023-04-15T11:53:19;19.25;;;14.35;;
7027;SDS011;3555;53.248;10.336;2023-04-15T11:55:47;18.38;;;13.60;;
7027;SDS011;3555;53.248;10.336;2023-04-15T11:58:17;15.70;;;13.07;;
7027;SDS011;3555;53.248;10.336;2023-04-15T12:00:47;18.23;;;14.30;;
7027;SDS011;3555;53.248;10.336;2023-04-15T12:03:17;17.65;;;13.45;;
7027;SDS011;3555;53.248;10.336;2023-04-15T12:06:07;18.02;;;13.98;;
7027;SDS011;3555;53.248;10.336;2023-04-15T12:08:54;20.38;;;13.48;;
7027;SDS011;3555;53.248;10.336;2023-04-15T12:11:27;20.08;;;14.70;;
7027;SDS011;3555;53.248;10.336;2023-04-15T12:13:57;16.77;;;13.63;;
7027;SDS011;3555;53.248;10.336;2023-04-15T12:16:26;17.75;;;13.50;;
7027;SDS011;3555;53.248;10.336;2023-04-15T12:18:54;20.25;;;13.85;;
7027;SDS011;3555;53.248;10.336;2023-04-15T12:21:23;19.02;;;13.98;;
7027;SDS011;3555;53.248;10.336;2023-04-15T12:23:52;16.58;;;13.02;;
7027;SDS011;3555;53.248;10.336;2023-04-15T12:26:24;17.13;;;13.15;;
7027;SDS011;3555;53.248;10.336;2023-04-15T12:28:52;17.83;;;13.68;;
7027;SDS011;3555;53.248;10.336;2023-04-15T12:31:20;16.63;;;13.27;;
7027;SDS011;3555;53.248;10.336;2023-04-15T12:33:49;17.23;;;12.70;;
7027;SDS011;3555;53.248;10.336;2023-04-15T12:36:16;17.98;;;13.48;;
7027;SDS011;3555;53.248;10.336;2023-04-15T12:38:42;17.23;;;13.80;;
7027;SDS011;3555;53.248;10.336;2023-04-15T12:41:09;15.90;;;12.73;;
7027;SDS011;3555;53.248;10.336;2023-04-15T12:43:36;16.63;;;12.30;;
7027;SDS011;3555;53.248;10.336;2023-04-15T12:46:03;15.10;;;12.02;;
7027;SDS011;3555;53.248;10.336;2023-04-15T12:48:31;14.70;;;12.20;;
7027;SDS011;3555;53.248;10.336;2023-04-15T12:50:59;14.02;;;11.85;;
7027;SDS011;3555;53.248;10.336;2023-04-15T12:53:26;16.65;;;12.50;;
7027;SDS011;3555;53.248;10.336;2023-04-15T12:55:53;15.82;;;11.73;;
7027;SDS011;3555;53.248;10.336;2023-04-15T12:58:20;14.18;;;11.48;;
7027;SDS011;3555;53.248;10.336;2023-04-15T13:00:47;15.18;;;11.20;;
7027;SDS011;3555;53.248;10.336;2023-04-15T13:03:14;15.32;;;10.52;;
7027;SDS011;3555;53.248;10.336;2023-04-15T13:05:41;14.80;;;11.82;;
7027;SDS011;3555;53.248;10.336;2023-04-15T13:08:10;13.40;;;10.75;;
7027;SDS011;3555;53.248;10.336;2023-04-15T13:10:36;11.73;;;9.93;;
7027;SDS011;3555;53.248;10.336;2023-04-15T13:13:03;14.25;;;10.88;;
7027;SDS011;3555;53.248;10.336;2023-04-15T13:15:31;11.60;;;10.40;;
7027;SDS011;3555;53.248;10.336;2023-04-15T13:17:57;12.70;;;9.98;;
7027;SDS011;3555;53.248;10.336;2023-04-15T13:20:25;13.77;;;9.98;;
7027;SDS011;3555;53.248;10.336;2023-04-15T13:22:52;13.93;;;9.70;;
7027;SDS011;3555;53.248;10.336;2023-04-15T13:25:20;10.90;;;9.73;;
7027;SDS011;3555;53.248;10.336;2023-04-15T13:27:47;10.98;;;9.55;;
7027;SDS011;3555;53.248;10.336;2023-04-15T13:30:14;14.43;;;10.95;;
7027;SDS011;3555;53.248;10.336;2023-04-15T13:32:41;12.55;;;9.98;;
7027;SDS011;3555;53.248;10.336;2023-04-15T13:35:08;14.57;;;9.85;;
7027;SDS011;3555;53.248;10.336;2023-04-15T13:37:35;14.10;;;10.52;;
7027;SDS011;3555;53.248;10.336;2023-04-15T13:40:03;13.00;;;10.02;;
7027;SDS011;3555;53.248;10.336;2023-04-15T13:45:01;11.13;;;9.60;;
7027;SDS011;3555;53.248;10.336;2023-04-15T13:47:28;13.00;;;10.73;;
7027;SDS011;3555;53.248;10.336;2023-04-15T13:49:55;12.38;;;9.95;;
7027;SDS011;3555;53.248;10.336;2023-04-15T13:52:22;13.40;;;11.13;;
7027;SDS011;3555;53.248;10.336;2023-04-15T13:54:49;12.82;;;10.75;;
7027;SDS011;3555;53.248;10.336;2023-04-15T13:57:16;11.93;;;9.18;;
7027;SDS011;3555;53.248;10.336;2023-04-15T13:59:45;12.70;;;9.70;;
7027;SDS011;3555;53.248;10.336;2023-04-15T14:02:11;12.77;;;9.85;;
7027;SDS011;3555;53.248;10.336;2023-04-15T14:04:38;12.30;;;10.38;;
7027;SDS011;3555;53.248;10.336;2023-04-15T14:07:05;10.90;;;9.18;;
7027;SDS011;3555;53.248;10.336;2023-04-15T14:09:32;12.07;;;10.13;;
7027;SDS011;3555;53.248;10.336;2023-04-15T14:11:59;10.98;;;9.27;;
7027;SDS011;3555;53.248;10.336;2023-04-15T14:14:26;12.75;;;9.82;;
7027;SDS011;3555;53.248;10.336;2023-04-15T14:16:55;11.43;;;8.90;;
7027;SDS011;3555;53.248;10.336;2023-04-15T14:19:22;10.50;;;8.52;;
7027;SDS011;3555;53.248;10.336;2023-04-15T14:21:50;10.38;;;8.85;;
7027;SDS011;3555;53.248;10.336;2023-04-15T14:24:17;9.77;;;7.82;;
7027;SDS011;3555;53.248;10.336;2023-04-15T14:26:44;10.40;;;9.13;;
7027;SDS011;3555;53.248;10.336;2023-04-15T14:29:11;11.02;;;8.73;;
7027;SDS011;3555;53.248;10.336;2023-04-15T14:31:38;9.38;;;8.07;;
7027;SDS011;3555;53.248;10.336;2023-04-15T14:34:06;10.95;;;8.43;;
7027;SDS011;3555;53.248;10.336;2023-04-15T14:36:33;10.30;;;8.20;;
7027;SDS011;3555;53.248;10.336;2023-04-15T14:39:00;11.98;;;9.23;;
7027;SDS011;3555;53.248;10.336;2023-04-15T14:41:28;12.98;;;8.80;;
7027;SDS011;3555;53.248;10.336;2023-04-15T14:43:55;12.38;;;8.88;;
7027;SDS011;3555;53.248;10.336;2023-04-15T14:46:21;10.60;;;8.20;;
7027;SDS011;3555;53.248;10.336;2023-04-15T14:48:48;9.40;;;7.80;;
7027;SDS011;3555;53.248;10.336;2023-04-15T14:51:17;9.38;;;7.03;;
7027;SDS011;3555;53.248;10.336;2023-04-15T14:53:44;9.90;;;7.75;;
7027;SDS011;3555;53.248;10.336;2023-04-15T14:56:11;8.05;;;7.03;;
7027;SDS011;3555;53.248;10.336;2023-04-15T14:58:37;9.35;;;7.93;;
7027;SDS011;3555;53.248;10.336;2023-04-15T15:01:04;9.55;;;7.72;;